Wetterdaten: Woche 18.10.10 - 24.10.10 (KW42)
Datum Zeit Temperatur Luftfeuchte Luftdruck Niederschlag Windrichtung Sonnenschein Solar Wind
18.10.2010 00:00 4,8 C 98 % 1016,9 hPa 0,2 l/m N-NO 0,00 h 0 W/m 9,4 km/h (2 Bft)
18.10.2010 01:00 4,6 C 98 % 1017,0 hPa 0,0 l/m NO 0,00 h 0 W/m 11,0 km/h (2 Bft)
18.10.2010 02:00 4,4 C 98 % 1017,2 hPa 0,0 l/m N-NO 0,00 h 0 W/m 8,6 km/h (2 Bft)
18.10.2010 03:00 4,3 C 98 % 1017,3 hPa 0,0 l/m N-NO 0,00 h 0 W/m 11,2 km/h (2 Bft)
18.10.2010 04:00 4,2 C 98 % 1017,4 hPa 0,0 l/m N-NO 0,00 h 0 W/m 9,9 km/h (2 Bft)
18.10.2010 05:00 4,1 C 98 % 1017,7 hPa 0,0 l/m NO 0,00 h 0 W/m 9,0 km/h (2 Bft)
18.10.2010 06:00 4,1 C 98 % 1018,0 hPa 0,0 l/m NO 0,00 h 0 W/m 6,0 km/h (2 Bft)
18.10.2010 07:00 3,9 C 98 % 1018,3 hPa 0,0 l/m NO 0,00 h 0 W/m 7,9 km/h (2 Bft)
18.10.2010 08:00 3,7 C 98 % 1018,6 hPa 0,0 l/m NO 0,00 h 19 W/m 8,6 km/h (2 Bft)
18.10.2010 09:00 4,0 C 98 % 1019,3 hPa 0,0 l/m N-NO 0,00 h 50 W/m 9,1 km/h (2 Bft)
18.10.2010 10:00 4,6 C 97 % 1019,7 hPa 0,0 l/m O-NO 0,00 h 90 W/m 9,1 km/h (2 Bft)
18.10.2010 11:00 5,3 C 94 % 1019,8 hPa 0,0 l/m N-NO 0,00 h 118 W/m 9,7 km/h (2 Bft)
18.10.2010 12:00 6,3 C 87 % 1019,8 hPa 0,0 l/m N-NO 0,00 h 171 W/m 7,3 km/h (2 Bft)
18.10.2010 13:00 8,1 C 81 % 1019,4 hPa 0,0 l/m N-NO 0,25 h 255 W/m 7,8 km/h (2 Bft)
18.10.2010 14:00 8,7 C 77 % 1019,1 hPa 0,0 l/m N-NO 0,00 h 186 W/m 7,2 km/h (2 Bft)
18.10.2010 15:00 8,6 C 75 % 1018,8 hPa 0,0 l/m NO 0,00 h 144 W/m 4,7 km/h (1 Bft)
18.10.2010 16:00 8,0 C 78 % 1018,6 hPa 0,0 l/m O-NO 0,00 h 88 W/m 6,4 km/h (2 Bft)
18.10.2010 17:00 7,1 C 81 % 1018,4 hPa 0,0 l/m O-NO 0,00 h 36 W/m 4,1 km/h (1 Bft)
18.10.2010 18:00 6,5 C 83 % 1018,6 hPa 0,0 l/m N 0,00 h 6 W/m 1,1 km/h (0 Bft)
18.10.2010 19:00 6,0 C 88 % 1019,0 hPa 0,0 l/m N 0,00 h 0 W/m 0,1 km/h (0 Bft)
18.10.2010 20:00 5,8 C 91 % 1019,1 hPa 0,0 l/m N 0,00 h 0 W/m 0,5 km/h (0 Bft)
18.10.2010 21:00 5,6 C 92 % 1019,1 hPa 0,0 l/m N 0,00 h 0 W/m 0,7 km/h (0 Bft)
18.10.2010 22:00 5,5 C 92 % 1019,1 hPa 0,0 l/m N 0,00 h 0 W/m 1,7 km/h (1 Bft)
18.10.2010 23:00 5,4 C 92 % 1018,7 hPa 0,0 l/m N 0,00 h 0 W/m 0,4 km/h (0 Bft)
19.10.2010 00:00 5,2 C 92 % 1018,0 hPa 0,0 l/m N 0,00 h 0 W/m 0,4 km/h (0 Bft)
19.10.2010 01:00 4,9 C 91 % 1017,4 hPa 0,0 l/m NW 0,00 h 0 W/m 3,7 km/h (1 Bft)
19.10.2010 02:00 4,1 C 90 % 1017,1 hPa 0,0 l/m N 0,00 h 0 W/m 1,3 km/h (1 Bft)
19.10.2010 03:00 2,8 C 89 % 1016,8 hPa 0,0 l/m W-NW 0,00 h 0 W/m 0,8 km/h (0 Bft)
19.10.2010 04:00 1,8 C 92 % 1016,2 hPa 0,0 l/m W-NW 0,00 h 0 W/m 3,3 km/h (1 Bft)
19.10.2010 05:00 1,3 C 93 % 1015,9 hPa 0,0 l/m N 0,00 h 0 W/m 1,2 km/h (1 Bft)
19.10.2010 06:00 0,7 C 94 % 1015,9 hPa 0,0 l/m N 0,00 h 0 W/m 0,7 km/h (0 Bft)
19.10.2010 07:00 1,1 C 96 % 1015,6 hPa 0,0 l/m SW 0,00 h 7 W/m 4,3 km/h (1 Bft)
19.10.2010 08:00 1,8 C 97 % 1015,1 hPa 0,0 l/m SW 0,00 h 28 W/m 9,8 km/h (2 Bft)
19.10.2010 09:00 3,7 C 95 % 1014,6 hPa 0,0 l/m W-SW 0,50 h 160 W/m 17,2 km/h (3 Bft)
19.10.2010 10:00 5,1 C 87 % 1014,1 hPa 0,0 l/m W-SW 0,00 h 143 W/m 21,4 km/h (4 Bft)
19.10.2010 11:00 6,5 C 80 % 1013,4 hPa 0,0 l/m SW 0,67 h 422 W/m 30,6 km/h (5 Bft)
19.10.2010 12:00 7,7 C 72 % 1012,8 hPa 0,0 l/m W-SW 0,08 h 153 W/m 31,5 km/h (5 Bft)
19.10.2010 13:00 6,6 C 84 % 1012,1 hPa 0,2 l/m W-SW 0,00 h 120 W/m 25,1 km/h (4 Bft)
19.10.2010 14:00 7,9 C 79 % 1011,1 hPa 0,0 l/m W 0,00 h 216 W/m 25,6 km/h (4 Bft)
19.10.2010 15:00 8,4 C 76 % 1010,2 hPa 0,0 l/m W-SW 0,00 h 161 W/m 28,2 km/h (4 Bft)
19.10.2010 16:00 7,9 C 79 % 1009,4 hPa 0,0 l/m SW 0,00 h 94 W/m 26,4 km/h (4 Bft)
19.10.2010 17:00 7,2 C 83 % 1008,9 hPa 0,0 l/m W-SW 0,00 h 47 W/m 27,8 km/h (4 Bft)
19.10.2010 18:00 7,3 C 85 % 1008,7 hPa 0,0 l/m W 0,00 h 9 W/m 24,5 km/h (4 Bft)
19.10.2010 19:00 7,0 C 90 % 1008,6 hPa 0,2 l/m W-SW 0,00 h 0 W/m 21,4 km/h (4 Bft)
19.10.2010 20:00 6,7 C 92 % 1008,2 hPa 0,2 l/m W-SW 0,00 h 0 W/m 18,9 km/h (3 Bft)
19.10.2010 21:00 6,5 C 94 % 1007,7 hPa 0,0 l/m W-SW 0,00 h 0 W/m 20,5 km/h (4 Bft)
19.10.2010 22:00 6,7 C 94 % 1007,1 hPa 0,0 l/m W 0,00 h 0 W/m 22,3 km/h (4 Bft)
19.10.2010 23:00 6,6 C 94 % 1006,9 hPa 0,2 l/m W-SW 0,00 h 0 W/m 19,4 km/h (3 Bft)
20.10.2010 00:00 6,0 C 93 % 1006,7 hPa 0,4 l/m W 0,00 h 0 W/m 17,3 km/h (3 Bft)
20.10.2010 01:00 5,3 C 93 % 1006,1 hPa 0,2 l/m W-SW 0,00 h 0 W/m 10,5 km/h (2 Bft)
20.10.2010 02:00 4,8 C 94 % 1006,0 hPa 0,2 l/m SW 0,00 h 0 W/m 12,6 km/h (3 Bft)
20.10.2010 03:00 4,5 C 95 % 1005,8 hPa 0,2 l/m W-SW 0,00 h 0 W/m 12,9 km/h (3 Bft)
20.10.2010 04:00 4,1 C 95 % 1006,3 hPa 0,2 l/m SW 0,00 h 0 W/m 11,8 km/h (2 Bft)
20.10.2010 05:00 3,6 C 96 % 1007,3 hPa 0,2 l/m W-SW 0,00 h 0 W/m 16,9 km/h (3 Bft)
20.10.2010 06:00 3,3 C 96 % 1008,4 hPa 0,0 l/m W-SW 0,00 h 0 W/m 16,6 km/h (3 Bft)
20.10.2010 07:00 3,3 C 97 % 1008,5 hPa 0,2 l/m SW 0,00 h 0 W/m 14,9 km/h (3 Bft)
20.10.2010 08:00 3,3 C 97 % 1008,8 hPa 0,2 l/m SW 0,00 h 21 W/m 15,2 km/h (3 Bft)
20.10.2010 09:00 3,6 C 98 % 1009,3 hPa 0,0 l/m SW 0,00 h 44 W/m 14,1 km/h (3 Bft)
20.10.2010 10:00 4,6 C 98 % 1009,8 hPa 0,2 l/m W-SW 0,00 h 93 W/m 14,0 km/h (3 Bft)
20.10.2010 11:00 5,5 C 98 % 1010,3 hPa 0,0 l/m W 0,08 h 160 W/m 20,0 km/h (4 Bft)
20.10.2010 12:00 6,3 C 93 % 1010,8 hPa 0,0 l/m W-SW 0,00 h 154 W/m 23,3 km/h (4 Bft)
20.10.2010 13:00 8,1 C 83 % 1011,0 hPa 0,0 l/m W 0,33 h 269 W/m 24,0 km/h (4 Bft)
20.10.2010 14:00 9,9 C 70 % 1011,1 hPa 0,0 l/m W 0,58 h 399 W/m 25,1 km/h (4 Bft)
20.10.2010 15:00 8,5 C 80 % 1011,4 hPa 0,0 l/m W 0,25 h 205 W/m 17,7 km/h (3 Bft)
20.10.2010 16:00 7,5 C 76 % 1012,0 hPa 0,0 l/m W-NW 0,08 h 74 W/m 20,0 km/h (4 Bft)
20.10.2010 17:00 6,5 C 79 % 1013,0 hPa 0,0 l/m W-NW 0,00 h 42 W/m 13,0 km/h (3 Bft)
20.10.2010 18:00 5,6 C 83 % 1014,3 hPa 0,0 l/m W-NW 0,00 h 9 W/m 18,6 km/h (3 Bft)
20.10.2010 19:00 4,9 C 86 % 1015,6 hPa 0,0 l/m W 0,00 h 0 W/m 11,0 km/h (2 Bft)
20.10.2010 20:00 4,4 C 86 % 1016,6 hPa 0,0 l/m W 0,00 h 0 W/m 14,9 km/h (3 Bft)
20.10.2010 21:00 3,9 C 88 % 1017,2 hPa 0,0 l/m W-SW 0,00 h 0 W/m 12,9 km/h (3 Bft)
20.10.2010 22:00 4,0 C 89 % 1018,1 hPa 0,0 l/m W 0,00 h 0 W/m 15,4 km/h (3 Bft)
20.10.2010 23:00 3,8 C 89 % 1019,0 hPa 0,0 l/m W 0,00 h 0 W/m 13,3 km/h (3 Bft)
21.10.2010 00:00 3,3 C 90 % 1020,0 hPa 0,0 l/m W 0,00 h 0 W/m 6,1 km/h (2 Bft)
21.10.2010 01:00 3,3 C 91 % 1020,6 hPa 0,0 l/m W-SW 0,00 h 0 W/m 10,2 km/h (2 Bft)
21.10.2010 02:00 3,2 C 89 % 1021,3 hPa 0,0 l/m W 0,00 h 0 W/m 12,8 km/h (3 Bft)
21.10.2010 03:00 2,4 C 88 % 1021,9 hPa 0,0 l/m W-SW 0,00 h 0 W/m 7,6 km/h (2 Bft)
21.10.2010 04:00 1,7 C 91 % 1022,4 hPa 0,0 l/m W-SW 0,00 h 0 W/m 9,0 km/h (2 Bft)
21.10.2010 05:00 1,2 C 92 % 1022,8 hPa 0,0 l/m W-SW 0,00 h 0 W/m 7,4 km/h (2 Bft)
21.10.2010 06:00 0,8 C 92 % 1023,4 hPa 0,0 l/m W-SW 0,00 h 0 W/m 9,7 km/h (2 Bft)
21.10.2010 07:00 0,2 C 91 % 1024,0 hPa 0,0 l/m SW 0,00 h 7 W/m 2,7 km/h (1 Bft)
21.10.2010 08:00 -0,5 C 93 % 1024,8 hPa 0,0 l/m N 0,50 h 58 W/m 0,9 km/h (0 Bft)
21.10.2010 09:00 2,1 C 97 % 1025,5 hPa 0,0 l/m S-SO 0,75 h 162 W/m 4,3 km/h (1 Bft)
21.10.2010 10:00 4,1 C 90 % 1025,9 hPa 0,0 l/m SO 0,00 h 65 W/m 9,3 km/h (2 Bft)
21.10.2010 11:00 5,3 C 80 % 1026,1 hPa 0,0 l/m S-SW 0,67 h 446 W/m 9,9 km/h (2 Bft)
21.10.2010 12:00 6,9 C 64 % 1026,1 hPa 0,0 l/m W-NW 0,08 h 158 W/m 9,8 km/h (2 Bft)
21.10.2010 13:00 8,1 C 59 % 1025,8 hPa 0,2 l/m W-NW 0,33 h 285 W/m 9,5 km/h (2 Bft)
21.10.2010 14:00 7,4 C 63 % 1025,5 hPa 0,0 l/m W-NW 0,25 h 196 W/m 6,3 km/h (2 Bft)
21.10.2010 15:00 7,2 C 59 % 1025,1 hPa 0,0 l/m W-SW 0,67 h 259 W/m 7,5 km/h (2 Bft)
21.10.2010 16:00 7,1 C 56 % 1024,8 hPa 0,0 l/m SW 0,50 h 175 W/m 6,4 km/h (2 Bft)
21.10.2010 17:00 6,2 C 60 % 1024,7 hPa 0,0 l/m W-SW 0,08 h 30 W/m 3,6 km/h (1 Bft)
21.10.2010 18:00 2,9 C 80 % 1024,7 hPa 0,0 l/m N 0,00 h 8 W/m 0,3 km/h (0 Bft)
21.10.2010 19:00 1,0 C 88 % 1024,9 hPa 0,0 l/m N 0,00 h 0 W/m 0,0 km/h (0 Bft)
21.10.2010 20:00 -0,1 C 91 % 1024,9 hPa 0,0 l/m N 0,00 h 0 W/m 0,1 km/h (0 Bft)
21.10.2010 21:00 -0,6 C 92 % 1024,9 hPa 0,0 l/m N 0,00 h 0 W/m 0,1 km/h (0 Bft)
21.10.2010 22:00 -1,1 C 93 % 1025,0 hPa 0,0 l/m N 0,00 h 0 W/m 0,0 km/h (0 Bft)
21.10.2010 23:00 -1,6 C 94 % 1024,8 hPa 0,0 l/m N 0,00 h 0 W/m 0,0 km/h (0 Bft)
22.10.2010 00:00 -1,9 C 95 % 1024,5 hPa 0,0 l/m N 0,00 h 0 W/m 0,0 km/h (0 Bft)
22.10.2010 01:00 -2,2 C 94 % 1024,5 hPa 0,0 l/m N 0,00 h 0 W/m 0,0 km/h (0 Bft)
22.10.2010 02:00 -2,5 C 94 % 1024,6 hPa 0,0 l/m N 0,00 h 0 W/m 0,1 km/h (0 Bft)
22.10.2010 03:00 -2,7 C 94 % 1024,4 hPa 0,0 l/m N 0,00 h 0 W/m 0,0 km/h (0 Bft)
22.10.2010 04:00 -3,2 C 94 % 1024,1 hPa 0,0 l/m N 0,00 h 0 W/m 0,0 km/h (0 Bft)
22.10.2010 05:00 -3,3 C 94 % 1023,7 hPa 0,0 l/m N 0,00 h 0 W/m 0,1 km/h (0 Bft)
22.10.2010 06:00 -2,1 C 96 % 1023,6 hPa 0,0 l/m N 0,00 h 0 W/m 1,9 km/h (1 Bft)
22.10.2010 07:00 -0,5 C 97 % 1023,5 hPa 0,0 l/m S-SW 0,00 h 0 W/m 4,1 km/h (1 Bft)
22.10.2010 08:00 -0,3 C 97 % 1023,8 hPa 0,0 l/m SW 0,00 h 21 W/m 3,9 km/h (1 Bft)
22.10.2010 09:00 -0,3 C 97 % 1024,2 hPa 0,0 l/m SW 0,00 h 77 W/m 3,2 km/h (1 Bft)
22.10.2010 10:00 0,1 C 98 % 1024,1 hPa 0,0 l/m SW 0,08 h 147 W/m 3,1 km/h (1 Bft)
22.10.2010 11:00 1,9 C 99 % 1023,8 hPa 0,0 l/m S-SW 0,33 h 288 W/m 2,0 km/h (1 Bft)
22.10.2010 12:00 5,3 C 87 % 1023,4 hPa 0,0 l/m S-SW 0,42 h 296 W/m 4,9 km/h (1 Bft)
22.10.2010 13:00 6,6 C 79 % 1022,8 hPa 0,0 l/m S-SO 0,00 h 243 W/m 5,6 km/h (1 Bft)
22.10.2010 14:00 8,0 C 74 % 1022,1 hPa 0,0 l/m SW 0,92 h 304 W/m 8,4 km/h (2 Bft)
22.10.2010 15:00 8,5 C 74 % 1021,8 hPa 0,0 l/m SW 0,08 h 136 W/m 7,8 km/h (2 Bft)
22.10.2010 16:00 8,3 C 77 % 1021,3 hPa 0,0 l/m S-SW 0,00 h 81 W/m 10,1 km/h (2 Bft)
22.10.2010 17:00 7,9 C 78 % 1020,9 hPa 0,0 l/m SW 0,00 h 28 W/m 5,5 km/h (1 Bft)
22.10.2010 18:00 7,2 C 80 % 1020,7 hPa 0,0 l/m W 0,00 h 5 W/m 5,7 km/h (1 Bft)
22.10.2010 19:00 6,7 C 82 % 1021,1 hPa 0,0 l/m N 0,00 h 0 W/m 2,5 km/h (1 Bft)
22.10.2010 20:00 6,0 C 86 % 1021,0 hPa 0,0 l/m N 0,00 h 0 W/m 0,7 km/h (0 Bft)
22.10.2010 21:00 5,4 C 89 % 1020,6 hPa 0,0 l/m N 0,00 h 0 W/m 1,1 km/h (0 Bft)
22.10.2010 22:00 5,0 C 90 % 1020,2 hPa 0,0 l/m N 0,00 h 0 W/m 0,3 km/h (0 Bft)
22.10.2010 23:00 4,7 C 92 % 1020,0 hPa 0,0 l/m N-NO 0,00 h 0 W/m 2,3 km/h (1 Bft)
23.10.2010 00:00 5,0 C 93 % 1019,4 hPa 0,0 l/m S-SW 0,00 h 0 W/m 4,1 km/h (1 Bft)
23.10.2010 01:00 5,3 C 94 % 1018,8 hPa 0,0 l/m SW 0,00 h 0 W/m 5,6 km/h (1 Bft)
23.10.2010 02:00 6,3 C 92 % 1018,4 hPa 0,0 l/m SW 0,00 h 0 W/m 12,9 km/h (3 Bft)
23.10.2010 03:00 6,5 C 92 % 1017,8 hPa 0,0 l/m SW 0,00 h 0 W/m 9,0 km/h (2 Bft)
23.10.2010 04:00 6,8 C 93 % 1017,2 hPa 0,0 l/m W-SW 0,00 h 0 W/m 10,9 km/h (2 Bft)
23.10.2010 05:00 6,7 C 94 % 1016,8 hPa 0,2 l/m SW 0,00 h 0 W/m 9,5 km/h (2 Bft)
23.10.2010 06:00 6,8 C 96 % 1016,2 hPa 0,0 l/m SW 0,00 h 0 W/m 9,1 km/h (2 Bft)
23.10.2010 07:00 6,8 C 97 % 1015,8 hPa 0,0 l/m SW 0,00 h 0 W/m 8,0 km/h (2 Bft)
23.10.2010 08:00 7,1 C 97 % 1015,4 hPa 0,0 l/m SW 0,00 h 9 W/m 10,1 km/h (2 Bft)
23.10.2010 09:00 7,3 C 96 % 1015,1 hPa 0,0 l/m SW 0,00 h 29 W/m 9,4 km/h (2 Bft)
23.10.2010 10:00 7,7 C 95 % 1014,9 hPa 0,2 l/m SW 0,00 h 84 W/m 7,0 km/h (2 Bft)
23.10.2010 11:00 9,5 C 90 % 1014,4 hPa 0,0 l/m SW 0,08 h 197 W/m 11,2 km/h (2 Bft)
23.10.2010 12:00 10,8 C 84 % 1013,9 hPa 0,0 l/m W-SW 0,08 h 198 W/m 24,5 km/h (4 Bft)
23.10.2010 13:00 10,7 C 82 % 1013,2 hPa 0,0 l/m W-SW 0,00 h 146 W/m 24,4 km/h (4 Bft)
23.10.2010 14:00 10,7 C 82 % 1012,3 hPa 0,0 l/m W 0,25 h 214 W/m 20,1 km/h (4 Bft)
23.10.2010 15:00 10,9 C 80 % 1011,9 hPa 0,0 l/m SW 0,00 h 102 W/m 20,8 km/h (4 Bft)
23.10.2010 16:00 11,3 C 77 % 1011,3 hPa 0,0 l/m W-SW 0,33 h 119 W/m 24,4 km/h (4 Bft)
23.10.2010 17:00 11,0 C 78 % 1010,7 hPa 0,0 l/m W-SW 0,00 h 34 W/m 20,9 km/h (4 Bft)
23.10.2010 18:00 9,8 C 83 % 1010,3 hPa 0,0 l/m W-SW 0,00 h 7 W/m 11,4 km/h (2 Bft)
23.10.2010 19:00 9,3 C 83 % 1009,8 hPa 0,0 l/m SW 0,00 h 0 W/m 14,1 km/h (3 Bft)
23.10.2010 20:00 10,1 C 80 % 1009,3 hPa 0,0 l/m SW 0,00 h 0 W/m 17,6 km/h (3 Bft)
23.10.2010 21:00 10,0 C 79 % 1008,9 hPa 0,0 l/m SW 0,00 h 0 W/m 14,9 km/h (3 Bft)
23.10.2010 22:00 8,8 C 82 % 1008,5 hPa 0,0 l/m SW 0,00 h 0 W/m 10,5 km/h (2 Bft)
23.10.2010 23:00 8,2 C 86 % 1008,5 hPa 0,0 l/m SW 0,00 h 0 W/m 13,7 km/h (3 Bft)
24.10.2010 00:00 9,8 C 83 % 1008,5 hPa 0,0 l/m W 0,00 h 0 W/m 9,0 km/h (2 Bft)
24.10.2010 01:00 9,3 C 86 % 1008,3 hPa 0,0 l/m W 0,00 h 0 W/m 8,2 km/h (2 Bft)
24.10.2010 02:00 9,2 C 88 % 1008,5 hPa 1,0 l/m W 0,00 h 0 W/m 17,7 km/h (3 Bft)
24.10.2010 03:00 8,2 C 92 % 1008,2 hPa 0,6 l/m W-SW 0,00 h 0 W/m 19,3 km/h (3 Bft)
24.10.2010 04:00 7,9 C 93 % 1008,0 hPa 0,8 l/m W 0,00 h 0 W/m 19,2 km/h (3 Bft)
24.10.2010 05:00 7,4 C 93 % 1008,7 hPa 0,8 l/m W 0,00 h 0 W/m 18,1 km/h (3 Bft)
24.10.2010 06:00 6,2 C 91 % 1009,8 hPa 0,6 l/m W-SW 0,00 h 0 W/m 14,8 km/h (3 Bft)
24.10.2010 07:00 5,5 C 92 % 1010,2 hPa 0,6 l/m W-SW 0,00 h 0 W/m 14,2 km/h (3 Bft)
24.10.2010 08:00 5,3 C 94 % 1010,7 hPa 0,8 l/m SW 0,00 h 7 W/m 12,5 km/h (3 Bft)
24.10.2010 09:00 5,2 C 95 % 1011,2 hPa 0,8 l/m SW 0,00 h 25 W/m 11,3 km/h (2 Bft)
24.10.2010 10:00 5,4 C 96 % 1011,5 hPa 0,8 l/m SW 0,00 h 78 W/m 12,8 km/h (3 Bft)
24.10.2010 11:00 5,7 C 95 % 1011,5 hPa 0,2 l/m SW 0,00 h 123 W/m 16,6 km/h (3 Bft)
24.10.2010 12:00 5,9 C 93 % 1011,8 hPa 0,0 l/m W-SW 0,00 h 107 W/m 20,2 km/h (4 Bft)
24.10.2010 13:00 6,1 C 91 % 1011,4 hPa 0,0 l/m W-SW 0,00 h 130 W/m 16,1 km/h (3 Bft)
24.10.2010 14:00 6,8 C 88 % 1010,9 hPa 0,0 l/m W-SW 0,00 h 193 W/m 16,6 km/h (3 Bft)
24.10.2010 15:00 6,9 C 86 % 1010,6 hPa 0,0 l/m SW 0,00 h 106 W/m 13,7 km/h (3 Bft)
24.10.2010 16:00 6,9 C 86 % 1010,5 hPa 0,0 l/m W-SW 0,00 h 85 W/m 14,5 km/h (3 Bft)
24.10.2010 17:00 6,7 C 89 % 1010,3 hPa 0,0 l/m SW 0,00 h 26 W/m 12,0 km/h (2 Bft)
24.10.2010 18:00 6,3 C 90 % 1010,5 hPa 0,0 l/m SW 0,00 h 5 W/m 6,3 km/h (2 Bft)
24.10.2010 19:00 6,0 C 92 % 1010,9 hPa 0,0 l/m S-SW 0,00 h 0 W/m 2,1 km/h (1 Bft)
24.10.2010 20:00 5,7 C 93 % 1011,1 hPa 2,0 l/m N-NO 0,00 h 0 W/m 4,7 km/h (1 Bft)
24.10.2010 21:00 5,2 C 94 % 1011,3 hPa 1,6 l/m N 0,00 h 0 W/m 2,7 km/h (1 Bft)
24.10.2010 22:00 5,0 C 95 % 1011,5 hPa 0,6 l/m N 0,00 h 0 W/m 1,1 km/h (0 Bft)
24.10.2010 23:00 4,8 C 95 % 1011,8 hPa 0,6 l/m N 0,00 h 0 W/m 1,2 km/h (1 Bft)
Min-Datum _ 22.10.10 21.10.10 20.10.10 - - - - 18.10.10
_ Min-Zeit 05:10 13:50 02:00 - - - - 15:15
Minimum _ -3,4 C 53 % 1005,5 hPa - - - - 0,0 km/h (0 Bft)
Max-Datum _ 23.10.10 20.10.10 21.10.10 24.10.10 - 18.10.10 20.10.10 19.10.10
_ Max-Zeit 16:15 10:20 11:10 20:25 - 13:25 13:25 12:05
Maximum _ 11,4 C 99 % 1026,2 hPa 2,0 l/m - 0,08 h 780 W/m 43,5 km/h
W-SW (6 Bft)
Durchschnitt _ 5,2 C 89 % 1016,1 hPa #15,4 l/m W-SW #9:15 h 123 W/m 10,4 km/h (2 Bft)